Burrwood, Louisiana
Current Conditions -  °F | °C
As of 10:51 PM on Monday 20 Oct 2014 (Local Time) from KBVE Reporting Station
Clear Clear  
Wind Chill: 70°   Ceiling: Unl
Heat Index: 70°   Visibility: 10mi
Dew Point: 64°   Wind: 0mph
Humidity: 81%   Direction: NA
Pressure: 30.01"   Gusts: NA
Location:  29.2037°N, 89.3875°W
Report Text: KBVE 210351Z AUTO 00000KT 10SM CLR 21/18 A3001 RMK AO2 SLP162 T02110178
Loading
Personal Weather Stations






























Interactive Weather Map
Tropical Storm Tracking
New forecast layout! Learn more

10-Day Weather Forecast

Advertisements
Track Severe Weather on mobile